Terminal Aerodrome Forecast
Issued by NWS

Home | Current Version | Previous Version | Text Only | Print | Product List | Glossary On
Versions: 1 2 3 4 5 6 7 8 9 10 11 12 13 14 15 16 17 18 19 20 21 22 23 24 25 26 27 28
000
FTUS45 KPSR 222344 AAA
TAFIWA
TAF AMD
KIWA 222344Z 2300/2324 33004KT P6SM FEW100 SCT250
      TEMPO 2300/2304 VRB04KT
     FM230400 11006KT P6SM FEW050 SCT090
     FM231000 12008KT P6SM VCSH SCT050 OVC080
     FM231600 17009KT P6SM VCSH BKN050 BKN070 PROB30 2316/2321 TSRA
      BKN040CB
     FM232100 20009KT P6SM VCSH BKN050 OVC080=

USA.gov is the U.S. government's official web portal to all federal, state and local government web resources and services.